createdAt,value
2019-05-22T00:01:18.166Z,12.03
2019-05-22T00:03:56.567Z,13.83
2019-05-22T00:06:30.077Z,21.90
2019-05-22T00:08:59.172Z,18.20
2019-05-22T00:11:29.997Z,21.10
2019-05-22T00:14:00.632Z,17.17
2019-05-22T00:16:31.612Z,19.37
2019-05-22T00:19:01.387Z,17.67
2019-05-22T00:21:30.464Z,21.47
2019-05-22T00:24:00.184Z,20.13
2019-05-22T00:26:29.263Z,17.57
2019-05-22T00:28:59.433Z,14.70
2019-05-22T00:31:30.202Z,22.33
2019-05-22T00:34:00.210Z,23.90
2019-05-22T00:36:31.350Z,22.03
2019-05-22T00:39:00.745Z,19.53
2019-05-22T00:41:32.711Z,19.83
2019-05-22T00:44:01.915Z,20.03
2019-05-22T00:46:31.145Z,17.43
2019-05-22T00:49:01.861Z,16.87
2019-05-22T00:51:45.644Z,17.13
2019-05-22T00:54:21.886Z,14.77
2019-05-22T00:56:56.825Z,13.93
2019-05-22T00:59:31.796Z,16.60
2019-05-22T01:02:03.009Z,12.87
2019-05-22T01:04:38.945Z,16.03
2019-05-22T01:07:18.905Z,18.17
2019-05-22T01:09:51.963Z,20.63
2019-05-22T01:12:30.637Z,19.00
2019-05-22T01:15:06.399Z,19.83
2019-05-22T01:17:36.772Z,21.13
2019-05-22T01:20:09.957Z,20.20
2019-05-22T01:22:41.803Z,13.97
2019-05-22T01:25:14.439Z,14.37
2019-05-22T01:27:44.038Z,22.53
2019-05-22T01:30:19.517Z,23.17
2019-05-22T01:32:51.819Z,20.00
2019-05-22T01:35:29.275Z,23.93
2019-05-22T01:37:59.887Z,27.30
2019-05-22T01:40:41.545Z,24.67
2019-05-22T01:43:14.158Z,20.53
2019-05-22T01:45:52.501Z,24.30
2019-05-22T01:48:29.754Z,22.63
2019-05-22T01:50:58.855Z,27.00
2019-05-22T01:53:38.580Z,21.43
2019-05-22T01:56:11.395Z,20.07
2019-05-22T01:58:42.419Z,18.37
2019-05-22T02:01:18.678Z,20.13
2019-05-22T02:03:47.973Z,18.83
2019-05-22T02:06:19.522Z,22.70
2019-05-22T02:08:53.241Z,23.13
2019-05-22T02:11:25.546Z,22.40
2019-05-22T02:14:03.812Z,21.63
2019-05-22T02:16:34.389Z,26.00
2019-05-22T02:19:05.146Z,21.33
2019-05-22T02:21:35.789Z,22.47
2019-05-22T02:24:07.371Z,20.70
2019-05-22T02:26:37.059Z,20.13
2019-05-22T02:29:08.708Z,23.57
2019-05-22T02:31:39.447Z,22.97
2019-05-22T02:34:09.397Z,20.30
2019-05-22T02:36:40.702Z,18.57
2019-05-22T02:39:15.719Z,21.03
2019-05-22T02:41:48.449Z,16.97
2019-05-22T02:44:17.787Z,19.10
2019-05-22T02:46:47.229Z,23.47
2019-05-22T02:49:17.427Z,25.60
2019-05-22T02:51:47.881Z,17.17
2019-05-22T02:54:17.003Z,27.87
2019-05-22T02:56:46.189Z,25.27
2019-05-22T02:59:17.526Z,25.90
2019-05-22T03:01:47.013Z,27.03
2019-05-22T03:04:17.328Z,28.50
2019-05-22T03:06:46.413Z,23.23
2019-05-22T03:09:19.698Z,24.10
2019-05-22T03:11:59.191Z,24.43
2019-05-22T03:14:31.197Z,24.97
2019-05-22T03:17:03.032Z,26.90
2019-05-22T03:19:41.225Z,24.80
2019-05-22T03:22:24.359Z,21.50
2019-05-22T03:24:55.497Z,23.60
2019-05-22T03:27:38.827Z,23.67
2019-05-22T03:30:12.794Z,23.77
2019-05-22T03:32:44.550Z,26.10
2019-05-22T03:35:14.266Z,23.67
2019-05-22T03:37:43.746Z,24.80
2019-05-22T03:40:14.103Z,27.57
2019-05-22T03:42:43.911Z,26.60
2019-05-22T03:45:14.552Z,24.57
2019-05-22T03:47:43.974Z,25.03
2019-05-22T03:50:13.905Z,22.23
2019-05-22T03:52:43.562Z,21.10
2019-05-22T03:55:14.211Z,24.40
2019-05-22T03:57:44.586Z,25.70
2019-05-22T04:00:17.512Z,21.20
2019-05-22T04:02:49.740Z,19.57
2019-05-22T04:05:20.983Z,26.50
2019-05-22T04:07:52.679Z,21.73
2019-05-22T04:10:23.977Z,26.13
2019-05-22T04:12:53.731Z,26.50
2019-05-22T04:19:17.381Z,22.67
2019-05-22T04:21:47.330Z,23.60
2019-05-22T04:24:16.833Z,25.73
2019-05-22T04:26:46.935Z,24.30
2019-05-22T04:29:16.019Z,27.27
2019-05-22T04:31:56.789Z,22.80
2019-05-22T04:34:26.491Z,23.13
2019-05-22T04:36:55.680Z,23.67
2019-05-22T04:39:27.477Z,24.07
2019-05-22T04:41:58.970Z,24.90
2019-05-22T04:44:29.301Z,23.30
2019-05-22T04:46:58.390Z,23.20
2019-05-22T04:49:27.510Z,20.87
2019-05-22T04:51:56.600Z,23.20
2019-05-22T04:54:26.152Z,25.30
2019-05-22T04:56:55.422Z,23.77
2019-05-22T04:59:24.520Z,24.63
2019-05-22T05:01:53.970Z,22.23
2019-05-22T05:04:24.249Z,24.43
2019-05-22T05:06:53.783Z,21.00
2019-05-22T05:09:22.987Z,22.80
2019-05-22T05:11:52.357Z,19.70
2019-05-22T05:14:21.481Z,19.10
2019-05-22T05:16:50.623Z,20.93
2019-05-22T05:19:20.470Z,20.23
2019-05-22T05:21:49.540Z,17.33
2019-05-22T05:24:18.866Z,17.97
2019-05-22T05:26:48.084Z,19.57
2019-05-22T05:29:28.592Z,19.90
2019-05-22T05:31:59.009Z,16.23
2019-05-22T05:34:38.320Z,21.97
2019-05-22T05:37:09.757Z,19.47
2019-05-22T05:40:26.330Z,22.97
2019-05-22T05:42:55.601Z,16.63
2019-05-22T05:45:26.689Z,17.77
2019-05-22T05:47:57.863Z,13.60
2019-05-22T05:50:38.943Z,18.63
2019-05-22T05:52:59.920Z,22.03
2019-05-22T05:55:31.057Z,19.87
2019-05-22T05:58:28.632Z,16.17
2019-05-22T06:01:02.923Z,20.50
2019-05-22T06:03:39.269Z,18.27
2019-05-22T06:06:55.116Z,14.97
2019-05-22T06:09:27.377Z,15.27
2019-05-22T06:11:57.916Z,16.80
2019-05-22T06:14:29.206Z,14.03
2019-05-22T06:17:54.727Z,15.47
2019-05-22T06:20:24.119Z,18.37
2019-05-22T06:23:40.809Z,15.40
2019-05-22T06:26:12.227Z,16.77
2019-05-22T06:28:41.995Z,18.67
2019-05-22T06:31:16.537Z,12.50
2019-05-22T06:33:45.806Z,16.60
2019-05-22T06:36:20.194Z,18.97
2019-05-22T06:39:08.639Z,16.60
2019-05-22T06:41:39.273Z,16.60
2019-05-22T06:44:40.760Z,17.87
2019-05-22T06:47:17.608Z,18.50
2019-05-22T06:49:52.847Z,16.83
2019-05-22T06:52:22.651Z,17.20
2019-05-22T06:54:52.332Z,15.73
2019-05-22T06:57:34.959Z,14.53
2019-05-22T07:00:13.843Z,18.37
2019-05-22T07:02:39.620Z,14.80
2019-05-22T07:05:09.872Z,17.10
2019-05-22T07:07:39.449Z,16.73
2019-05-22T07:10:12.932Z,17.33
2019-05-22T07:12:43.798Z,17.50
2019-05-22T07:15:23.144Z,15.00
2019-05-22T07:17:58.860Z,15.60
2019-05-22T07:20:32.466Z,18.77
2019-05-22T07:23:04.081Z,17.97
2019-05-22T07:25:35.448Z,16.83
2019-05-22T07:28:04.788Z,15.60
2019-05-22T07:30:34.025Z,19.97
2019-05-22T07:33:03.231Z,17.67
2019-05-22T07:35:46.186Z,16.13
2019-05-22T07:38:03.752Z,19.87
2019-05-22T07:40:33.815Z,19.43
2019-05-22T07:43:03.022Z,16.57
2019-05-22T07:45:34.245Z,18.23
2019-05-22T07:48:04.762Z,16.70
2019-05-22T07:50:36.400Z,16.97
2019-05-22T07:53:07.375Z,19.97
2019-05-22T07:55:37.052Z,17.03
2019-05-22T07:58:11.981Z,15.27
2019-05-22T08:00:47.838Z,13.80
2019-05-22T08:03:17.012Z,16.63
2019-05-22T08:05:50.110Z,17.57
2019-05-22T08:08:21.120Z,14.57
2019-05-22T08:10:50.569Z,15.63
2019-05-22T08:13:19.974Z,16.20
2019-05-22T08:15:59.619Z,15.10
2019-05-22T08:18:41.712Z,15.83
2019-05-22T08:24:20.956Z,18.10
2019-05-22T08:26:54.464Z,12.73
2019-05-22T08:29:22.121Z,13.57
2019-05-22T08:31:53.465Z,11.97
2019-05-22T08:34:24.126Z,13.50
2019-05-22T08:36:54.117Z,13.57
2019-05-22T08:39:28.112Z,15.00
2019-05-22T08:41:58.059Z,13.83
2019-05-22T08:44:28.678Z,15.07
2019-05-22T08:46:59.658Z,12.90
2019-05-22T08:49:29.938Z,11.67
2019-05-22T08:51:59.752Z,11.07
2019-05-22T08:54:30.433Z,11.50
2019-05-22T08:57:00.375Z,11.83
2019-05-22T08:59:37.366Z,13.90
2019-05-22T09:02:12.595Z,11.23
2019-05-22T09:04:49.535Z,11.03
2019-05-22T09:07:19.168Z,12.20
2019-05-22T09:09:48.340Z,9.33
2019-05-22T09:12:17.425Z,9.90
2019-05-22T09:14:46.509Z,10.03
2019-05-22T09:17:15.865Z,11.30
2019-05-22T09:19:45.934Z,10.50
2019-05-22T09:22:15.575Z,10.80
2019-05-22T09:24:45.608Z,12.53
2019-05-22T09:27:18.514Z,11.83
2019-05-22T09:29:47.656Z,13.70
2019-05-22T09:32:17.106Z,10.83
2019-05-22T09:34:46.288Z,10.53
2019-05-22T09:37:15.386Z,10.57
2019-05-22T09:39:44.835Z,13.20
2019-05-22T09:42:14.834Z,12.37
2019-05-22T09:44:45.135Z,11.57
2019-05-22T09:47:15.133Z,11.63
2019-05-22T09:49:45.865Z,9.93
2019-05-22T09:52:14.940Z,11.50
2019-05-22T09:54:44.009Z,11.70
2019-05-22T09:57:16.449Z,10.13
2019-05-22T09:59:45.522Z,8.37
2019-05-22T10:02:14.775Z,10.27
2019-05-22T10:04:44.025Z,9.83
2019-05-22T10:07:13.120Z,8.47
2019-05-22T10:09:45.017Z,10.50
2019-05-22T10:12:14.197Z,8.80
2019-05-22T10:14:43.351Z,8.87
2019-05-22T10:17:22.111Z,10.13
2019-05-22T10:19:51.330Z,8.10
2019-05-22T10:22:21.196Z,9.87
2019-05-22T10:25:14.035Z,8.23
2019-05-22T10:27:27.639Z,9.23
2019-05-22T10:29:57.087Z,8.67
2019-05-22T10:32:32.222Z,9.83
2019-05-22T10:34:59.794Z,8.00
2019-05-22T10:37:29.468Z,9.57
2019-05-22T10:39:59.208Z,7.73
2019-05-22T10:42:28.365Z,9.67
2019-05-22T10:44:57.524Z,8.53
2019-05-22T10:47:27.331Z,10.93
2019-05-22T10:49:56.436Z,9.67
2019-05-22T10:52:27.413Z,9.60
2019-05-22T10:54:56.587Z,9.07
2019-05-22T10:57:26.397Z,9.43
2019-05-22T10:59:55.462Z,10.37
2019-05-22T11:02:25.317Z,9.30
2019-05-22T11:04:54.737Z,10.40
2019-05-22T11:07:25.681Z,11.17
2019-05-22T11:09:55.287Z,11.70
2019-05-22T11:12:27.425Z,13.80
2019-05-22T11:14:57.393Z,11.53
2019-05-22T11:17:26.975Z,11.33
2019-05-22T11:19:56.205Z,12.67
2019-05-22T11:22:26.262Z,12.40
2019-05-22T11:24:55.363Z,12.63
2019-05-22T11:27:25.155Z,12.63
2019-05-22T11:29:54.551Z,12.33
2019-05-22T11:32:29.870Z,10.27
2019-05-22T11:34:59.938Z,11.37
2019-05-22T11:37:30.923Z,10.73
2019-05-22T11:40:01.557Z,10.93
2019-05-22T11:42:46.031Z,10.50
2019-05-22T11:45:14.705Z,10.37
2019-05-22T11:47:49.391Z,10.97
2019-05-22T11:50:22.737Z,10.60
2019-05-22T11:52:52.002Z,13.97
2019-05-22T11:55:21.778Z,12.13
2019-05-22T11:57:51.821Z,11.47
2019-05-22T12:00:25.794Z,12.83
2019-05-22T12:02:56.414Z,13.57
2019-05-22T12:05:26.458Z,12.00
2019-05-22T12:07:55.623Z,12.30
2019-05-22T12:10:26.580Z,10.27
2019-05-22T12:12:56.122Z,8.63
2019-05-22T12:15:29.730Z,8.60
2019-05-22T12:17:59.643Z,8.40
2019-05-22T12:20:30.211Z,8.23
2019-05-22T12:22:59.773Z,9.17
2019-05-22T12:25:30.776Z,9.57
2019-05-22T12:28:00.050Z,9.17
2019-05-22T12:30:29.640Z,9.37
2019-05-22T12:33:00.037Z,7.90
2019-05-22T12:35:29.214Z,9.97
2019-05-22T12:37:59.263Z,10.17
2019-05-22T12:40:33.667Z,10.83
2019-05-22T12:43:04.120Z,15.50
2019-05-22T12:45:34.313Z,12.93
2019-05-22T12:48:06.990Z,10.73
2019-05-22T12:50:36.711Z,9.30
2019-05-22T12:53:08.029Z,9.90
2019-05-22T12:55:37.166Z,10.63
2019-05-22T12:58:07.060Z,11.40
2019-05-22T13:00:39.530Z,12.83
2019-05-22T13:03:09.079Z,9.77
2019-05-22T13:05:51.938Z,9.67
2019-05-22T13:08:21.821Z,11.57
2019-05-22T13:10:52.408Z,9.90
2019-05-22T13:13:22.049Z,9.73
2019-05-22T13:15:54.243Z,9.70
2019-05-22T13:18:25.680Z,8.80
2019-05-22T13:20:55.576Z,7.13
2019-05-22T13:23:28.894Z,8.00
2019-05-22T13:25:58.770Z,8.20
2019-05-22T13:28:30.422Z,7.90
2019-05-22T13:31:01.131Z,6.50
2019-05-22T13:33:31.575Z,6.17
2019-05-22T13:36:01.761Z,7.53
2019-05-22T13:38:30.835Z,7.47
2019-05-22T13:41:00.094Z,8.07
2019-05-22T13:43:29.892Z,7.27
2019-05-22T13:45:59.477Z,7.47
2019-05-22T13:48:28.788Z,7.00
2019-05-22T13:51:00.043Z,7.80
2019-05-22T13:53:30.083Z,8.30
2019-05-22T13:55:59.270Z,8.10
2019-05-22T13:58:29.716Z,11.10
2019-05-22T14:00:59.009Z,10.60
2019-05-22T14:03:28.538Z,9.50
2019-05-22T14:05:58.237Z,7.87
2019-05-22T14:08:28.168Z,7.30
2019-05-22T14:10:58.275Z,7.37
2019-05-22T14:13:27.812Z,6.43
2019-05-22T14:15:57.869Z,7.20
2019-05-22T14:18:27.498Z,6.83
2019-05-22T14:20:56.569Z,7.77
2019-05-22T14:23:25.635Z,7.20
2019-05-22T14:25:54.743Z,7.47
2019-05-22T14:28:25.422Z,6.50
2019-05-22T14:30:54.940Z,8.07
2019-05-22T14:33:28.060Z,7.47
2019-05-22T14:35:57.852Z,7.87
2019-05-22T14:38:27.470Z,8.37
2019-05-22T14:40:57.471Z,6.93
2019-05-22T14:43:26.919Z,10.80
2019-05-22T14:45:55.997Z,7.30
2019-05-22T14:48:25.097Z,7.87
2019-05-22T14:50:54.305Z,7.33
2019-05-22T14:53:23.355Z,9.33
2019-05-22T14:55:52.958Z,8.50
2019-05-22T14:58:23.435Z,7.50
2019-05-22T15:00:53.185Z,8.60
2019-05-22T15:03:22.985Z,7.43
2019-05-22T15:05:53.237Z,7.37
2019-05-22T15:08:22.324Z,7.70
2019-05-22T15:10:51.597Z,7.50
2019-05-22T15:13:21.515Z,7.33
2019-05-22T15:15:50.597Z,6.60
2019-05-22T15:18:19.704Z,7.93
2019-05-22T15:21:15.171Z,8.00
2019-05-22T15:23:44.941Z,6.73
2019-05-22T15:26:14.715Z,6.33
2019-05-22T15:28:43.979Z,6.47
2019-05-22T15:31:13.540Z,5.10
2019-05-22T15:33:43.132Z,5.37
2019-05-22T15:36:15.896Z,5.80
2019-05-22T15:38:46.195Z,7.17
2019-05-22T15:41:15.451Z,6.33
2019-05-22T15:43:52.534Z,5.70
2019-05-22T15:46:19.964Z,6.13
2019-05-22T15:48:50.706Z,6.00
2019-05-22T15:51:24.389Z,5.87
2019-05-22T15:53:58.006Z,7.20
2019-05-22T15:56:30.462Z,6.23
2019-05-22T15:59:01.009Z,7.13
2019-05-22T16:01:33.405Z,6.17
2019-05-22T16:04:02.693Z,6.47
2019-05-22T16:06:32.442Z,6.23
2019-05-22T16:09:04.135Z,6.10
2019-05-22T16:11:34.182Z,8.03
2019-05-22T16:14:03.781Z,5.40
2019-05-22T16:16:36.089Z,5.33
2019-05-22T16:19:09.009Z,4.67
2019-05-22T16:21:42.048Z,6.63
2019-05-22T16:24:11.953Z,6.83
2019-05-22T16:26:42.323Z,5.30
2019-05-22T16:29:12.723Z,7.73
2019-05-22T16:31:44.002Z,7.20
2019-05-22T16:34:14.679Z,6.70
2019-05-22T16:36:44.847Z,5.80
2019-05-22T16:39:17.140Z,6.87
2019-05-22T16:41:47.547Z,6.67
2019-05-22T16:44:16.880Z,6.70
2019-05-22T16:46:46.912Z,6.13
2019-05-22T16:49:17.009Z,5.60
2019-05-22T16:51:47.294Z,5.13
2019-05-22T16:54:20.301Z,5.13
2019-05-22T16:56:48.243Z,5.77
2019-05-22T16:59:18.781Z,5.20
2019-05-22T17:01:58.746Z,7.07
2019-05-22T17:04:19.505Z,5.50
2019-05-22T17:06:48.566Z,6.03
2019-05-22T17:09:18.931Z,6.80
2019-05-22T17:11:48.405Z,7.03
2019-05-22T17:14:18.995Z,5.60
2019-05-22T17:16:49.663Z,6.43
2019-05-22T17:19:27.210Z,6.80
2019-05-22T17:21:50.253Z,9.10
2019-05-22T17:24:21.371Z,7.03
2019-05-22T17:26:52.496Z,6.90
2019-05-22T17:29:21.600Z,5.70
2019-05-22T17:31:51.627Z,5.97
2019-05-22T17:34:36.561Z,6.60
2019-05-22T17:37:14.465Z,6.30
2019-05-22T17:39:46.730Z,5.30
2019-05-22T17:42:18.375Z,6.20
2019-05-22T17:44:49.685Z,5.23
2019-05-22T17:47:21.826Z,4.53
2019-05-22T17:49:51.703Z,4.10
2019-05-22T17:52:23.241Z,5.77
2019-05-22T17:54:54.149Z,3.60
2019-05-22T17:57:25.315Z,4.87
2019-05-22T17:59:55.825Z,4.10
2019-05-22T18:02:29.510Z,5.00
2019-05-22T18:04:58.599Z,3.87
2019-05-22T18:07:28.765Z,3.87
2019-05-22T18:09:57.836Z,5.20
2019-05-22T18:12:27.635Z,4.60
2019-05-22T18:14:57.002Z,3.70
2019-05-22T18:17:26.651Z,4.20
2019-05-22T18:19:55.943Z,4.17
2019-05-22T18:22:25.008Z,4.60
2019-05-22T18:24:54.060Z,4.27
2019-05-22T18:27:25.226Z,3.43
2019-05-22T18:29:54.199Z,3.63
2019-05-22T18:32:23.381Z,4.47
2019-05-22T18:34:52.457Z,3.60
2019-05-22T18:37:21.538Z,4.00
2019-05-22T18:39:51.095Z,3.23
2019-05-22T18:42:20.355Z,5.37
2019-05-22T18:44:49.349Z,4.00
2019-05-22T18:47:18.659Z,2.50
2019-05-22T18:49:47.729Z,2.67
2019-05-22T18:52:16.917Z,2.23
2019-05-22T18:54:45.979Z,2.60
2019-05-22T18:57:15.838Z,2.80
2019-05-22T18:59:45.432Z,2.33
2019-05-22T19:02:14.853Z,2.93
2019-05-22T19:04:44.003Z,3.13
2019-05-22T19:07:13.374Z,2.73
2019-05-22T19:09:42.477Z,3.93
2019-05-22T19:12:11.662Z,3.17
2019-05-22T19:14:40.811Z,3.63
2019-05-22T19:17:10.156Z,2.40
2019-05-22T19:19:39.125Z,2.33
2019-05-22T19:22:08.508Z,1.83
2019-05-22T19:24:37.628Z,2.23
2019-05-22T19:27:06.709Z,3.43
2019-05-22T19:29:35.778Z,2.67
2019-05-22T19:32:04.963Z,2.40
2019-05-22T19:34:34.026Z,2.00
2019-05-22T19:37:03.115Z,2.57
2019-05-22T19:39:32.182Z,2.30
2019-05-22T19:42:05.015Z,1.67
2019-05-22T19:44:32.243Z,2.07
2019-05-22T19:47:01.531Z,1.97
2019-05-22T19:49:31.191Z,1.70
2019-05-22T19:52:00.373Z,1.97
2019-05-22T19:54:29.638Z,1.43
2019-05-22T19:56:58.744Z,1.50
2019-05-22T19:59:27.868Z,1.30
2019-05-22T20:01:57.439Z,1.10
2019-05-22T20:04:26.999Z,1.13
2019-05-22T20:06:56.859Z,1.20
2019-05-22T20:09:27.148Z,0.90
2019-05-22T20:11:56.235Z,1.30
2019-05-22T20:14:26.088Z,1.10
2019-05-22T20:16:55.223Z,0.90
2019-05-22T20:19:24.589Z,1.20
2019-05-22T20:21:53.961Z,1.03
2019-05-22T20:24:23.022Z,1.20
2019-05-22T20:26:52.387Z,1.50
2019-05-22T20:29:22.049Z,1.17
2019-05-22T20:31:51.421Z,1.20
2019-05-22T20:34:20.605Z,1.20
2019-05-22T20:36:49.783Z,1.07
2019-05-22T20:39:20.023Z,1.00
2019-05-22T20:41:49.148Z,1.20
2019-05-22T20:44:19.622Z,1.17
2019-05-22T20:46:50.949Z,1.43
2019-05-22T20:49:20.041Z,1.33
2019-05-22T20:51:49.114Z,1.10
2019-05-22T20:54:18.505Z,1.20
2019-05-22T20:56:50.598Z,1.30
2019-05-22T20:59:21.341Z,1.27
2019-05-22T21:01:50.402Z,1.03
2019-05-22T21:04:20.453Z,1.20
2019-05-22T21:06:59.890Z,1.27
2019-05-22T21:09:28.155Z,1.20
2019-05-22T21:11:58.715Z,0.97
2019-05-22T21:14:28.687Z,1.20
2019-05-22T21:16:57.763Z,1.23
2019-05-22T21:19:29.669Z,1.10
2019-05-22T21:21:59.631Z,0.90
2019-05-22T21:24:28.820Z,1.23
2019-05-22T21:26:57.896Z,1.50
2019-05-22T21:29:27.549Z,1.10
2019-05-22T21:31:56.617Z,1.20
2019-05-22T21:34:26.064Z,0.90
2019-05-22T21:36:55.239Z,1.33
2019-05-22T21:39:24.416Z,1.17
2019-05-22T21:41:53.885Z,0.80
2019-05-22T21:44:23.279Z,1.03
2019-05-22T21:46:52.729Z,1.00
2019-05-22T21:49:23.479Z,0.90
2019-05-22T21:51:52.552Z,1.10
2019-05-22T21:54:21.734Z,1.20
2019-05-22T21:56:51.179Z,1.63
2019-05-22T21:59:20.283Z,1.20
2019-05-22T22:01:53.885Z,1.10
2019-05-22T22:04:31.385Z,0.90
2019-05-22T22:07:01.818Z,1.17
2019-05-22T22:09:32.561Z,0.83
2019-05-22T22:12:02.298Z,1.00
2019-05-22T22:14:32.358Z,0.90
2019-05-22T22:17:02.406Z,1.20
2019-05-22T22:19:32.772Z,0.90
2019-05-22T22:22:02.712Z,0.90
2019-05-22T22:24:32.392Z,1.00
2019-05-22T22:27:01.655Z,0.90
2019-05-22T22:29:31.898Z,1.00
2019-05-22T22:32:01.172Z,1.37
2019-05-22T22:34:47.462Z,1.07
2019-05-22T22:37:17.538Z,1.30
2019-05-22T22:39:51.995Z,1.07
2019-05-22T22:42:25.099Z,1.10
2019-05-22T22:44:55.726Z,1.17
2019-05-22T22:47:37.023Z,1.10
2019-05-22T22:50:08.118Z,1.10
2019-05-22T22:52:39.058Z,1.33
2019-05-22T22:55:10.983Z,1.20
2019-05-22T22:57:41.058Z,1.23
2019-05-22T23:00:13.067Z,0.93
2019-05-22T23:02:43.837Z,1.10
2019-05-22T23:05:13.051Z,0.80
2019-05-22T23:07:43.409Z,1.20
2019-05-22T23:10:14.652Z,1.20
2019-05-22T23:12:43.707Z,1.50
2019-05-22T23:15:18.305Z,1.10
2019-05-22T23:17:46.637Z,1.00
2019-05-22T23:20:14.125Z,0.90
2019-05-22T23:22:41.593Z,1.17
2019-05-22T23:25:10.800Z,0.90
2019-05-22T23:27:40.502Z,1.17
2019-05-22T23:30:10.854Z,1.10
2019-05-22T23:32:42.480Z,0.90
2019-05-22T23:35:13.032Z,1.07
2019-05-22T23:37:43.213Z,0.90
2019-05-22T23:40:14.326Z,1.33
2019-05-22T23:42:44.293Z,1.00
2019-05-22T23:45:16.875Z,1.13
2019-05-22T23:48:17.416Z,0.90
2019-05-22T23:50:48.361Z,1.13
2019-05-22T23:53:18.520Z,1.00
2019-05-22T23:55:48.788Z,0.90
2019-05-22T23:58:20.137Z,1.10
